createdAt,value
2023-05-09T00:00:39.781Z,22.30
2023-05-09T00:03:06.841Z,22.30
2023-05-09T00:05:33.801Z,22.30
2023-05-09T00:08:00.773Z,22.20
2023-05-09T00:10:27.983Z,22.30
2023-05-09T00:12:54.908Z,22.30
2023-05-09T00:15:21.806Z,22.20
2023-05-09T00:17:48.878Z,22.20
2023-05-09T00:20:16.078Z,22.20
2023-05-09T00:22:43.060Z,22.20
2023-05-09T00:25:10.881Z,22.20
2023-05-09T00:27:37.927Z,22.20
2023-05-09T00:30:06.141Z,22.20
2023-05-09T00:32:34.176Z,22.20
2023-05-09T00:35:01.190Z,22.20
2023-05-09T00:37:30.668Z,22.10
2023-05-09T00:39:57.576Z,22.10
2023-05-09T00:42:24.586Z,22.10
2023-05-09T00:44:51.434Z,22.10
2023-05-09T00:47:18.466Z,22.00
2023-05-09T00:49:45.350Z,22.10
2023-05-09T00:52:12.248Z,22.10
2023-05-09T00:54:39.257Z,22.10
2023-05-09T00:57:06.187Z,22.00
2023-05-09T00:59:33.254Z,22.00
2023-05-09T01:02:00.189Z,22.10
2023-05-09T01:04:27.257Z,22.00
2023-05-09T01:07:00.146Z,22.00
2023-05-09T01:09:45.707Z,22.00
2023-05-09T01:12:34.114Z,22.00
2023-05-09T01:15:09.921Z,22.00
2023-05-09T01:17:40.489Z,22.00
2023-05-09T01:20:18.725Z,21.90
2023-05-09T01:23:12.181Z,22.00
2023-05-09T01:26:03.414Z,21.90
2023-05-09T01:28:53.326Z,21.90
2023-05-09T01:31:20.742Z,21.80
2023-05-09T01:33:54.342Z,21.90
2023-05-09T01:36:21.738Z,21.90
2023-05-09T01:38:51.947Z,21.90
2023-05-09T01:41:21.373Z,21.80
2023-05-09T01:43:50.610Z,21.80
2023-05-09T01:46:19.533Z,21.90
2023-05-09T01:48:48.246Z,21.80
2023-05-09T01:51:16.544Z,21.80
2023-05-09T01:53:45.378Z,21.80
2023-05-09T01:56:12.857Z,21.80
2023-05-09T01:58:40.991Z,21.80
2023-05-09T02:01:08.617Z,21.80
2023-05-09T02:03:38.131Z,21.70
2023-05-09T02:06:05.998Z,21.70
2023-05-09T02:08:33.536Z,21.70
2023-05-09T02:11:00.716Z,21.70
2023-05-09T02:13:27.789Z,21.70
2023-05-09T02:15:55.654Z,21.70
2023-05-09T02:18:22.905Z,21.60
2023-05-09T02:20:49.835Z,21.60
2023-05-09T02:23:16.743Z,21.60
2023-05-09T02:25:44.496Z,21.60
2023-05-09T02:28:12.037Z,21.60
2023-05-09T02:30:44.345Z,21.60
2023-05-09T02:33:13.078Z,21.60
2023-05-09T02:35:43.009Z,21.50
2023-05-09T02:38:10.175Z,21.50
2023-05-09T02:40:37.356Z,21.50
2023-05-09T02:43:04.231Z,21.50
2023-05-09T02:45:32.176Z,21.50
2023-05-09T02:47:59.287Z,21.50
2023-05-09T02:50:26.248Z,21.50
2023-05-09T02:52:53.165Z,21.50
2023-05-09T02:55:20.042Z,21.40
2023-05-09T02:57:46.984Z,21.40
2023-05-09T03:00:14.495Z,21.40
2023-05-09T03:02:41.510Z,21.40
2023-05-09T03:05:08.830Z,21.40
2023-05-09T03:07:35.857Z,21.40
2023-05-09T03:10:02.775Z,21.40
2023-05-09T03:12:29.647Z,21.30
2023-05-09T03:14:56.538Z,21.30
2023-05-09T03:17:23.396Z,21.30
2023-05-09T03:19:50.370Z,21.20
2023-05-09T03:22:17.236Z,21.20
2023-05-09T03:24:44.094Z,21.20
2023-05-09T03:27:10.977Z,21.10
2023-05-09T03:29:37.930Z,21.10
2023-05-09T03:32:05.281Z,21.10
2023-05-09T03:34:32.289Z,21.10
2023-05-09T03:36:59.645Z,21.10
2023-05-09T03:39:26.530Z,21.10
2023-05-09T03:41:53.418Z,21.10
2023-05-09T03:44:20.316Z,20.90
2023-05-09T03:46:47.281Z,20.90
2023-05-09T03:49:14.166Z,20.80
2023-05-09T03:51:42.135Z,20.80
2023-05-09T03:54:09.408Z,20.70
2023-05-09T03:56:36.444Z,20.70
2023-05-09T03:59:03.359Z,20.70
2023-05-09T04:01:30.925Z,20.70
2023-05-09T04:03:57.984Z,20.60
2023-05-09T04:06:25.044Z,20.60
2023-05-09T04:08:52.394Z,20.60
2023-05-09T04:11:19.293Z,20.60
2023-05-09T04:13:46.195Z,20.60
2023-05-09T04:16:13.357Z,20.60
2023-05-09T04:18:42.280Z,20.60
2023-05-09T04:21:09.736Z,20.60
2023-05-09T04:23:36.832Z,20.60
2023-05-09T04:26:03.779Z,20.60
2023-05-09T04:28:30.747Z,20.60
2023-05-09T04:30:58.156Z,20.70
2023-05-09T04:33:25.118Z,20.70
2023-05-09T04:35:52.478Z,20.70
2023-05-09T04:38:19.364Z,20.70
2023-05-09T04:40:46.347Z,20.70
2023-05-09T04:43:13.481Z,20.70
2023-05-09T04:45:40.740Z,20.70
2023-05-09T04:48:07.845Z,20.70
2023-05-09T04:50:34.836Z,20.70
2023-05-09T04:53:01.784Z,20.70
2023-05-09T04:55:28.760Z,20.60
2023-05-09T04:57:55.710Z,20.70
2023-05-09T05:00:22.898Z,20.60
2023-05-09T05:02:49.859Z,20.60
2023-05-09T05:05:16.881Z,20.60
2023-05-09T05:07:43.737Z,20.60
2023-05-09T05:10:10.903Z,20.60
2023-05-09T05:12:37.892Z,20.60
2023-05-09T05:15:05.254Z,20.70
2023-05-09T05:17:32.143Z,20.70
2023-05-09T05:19:59.128Z,20.70
2023-05-09T05:22:26.243Z,20.60
2023-05-09T05:24:53.152Z,20.70
2023-05-09T05:27:20.040Z,20.70
2023-05-09T05:29:46.957Z,20.70
2023-05-09T05:32:13.906Z,20.70
2023-05-09T05:34:40.952Z,20.70
2023-05-09T05:37:07.849Z,20.70
2023-05-09T05:39:34.745Z,20.70
2023-05-09T05:42:01.770Z,20.70
2023-05-09T05:44:28.676Z,20.70
2023-05-09T05:46:55.560Z,20.70
2023-05-09T05:49:22.526Z,20.70
2023-05-09T05:51:49.358Z,20.70
2023-05-09T05:54:16.178Z,20.70
2023-05-09T05:56:43.214Z,20.70
2023-05-09T05:59:11.855Z,20.70
2023-05-09T06:01:40.045Z,20.70
2023-05-09T06:04:07.008Z,20.70
2023-05-09T06:06:34.324Z,20.80
2023-05-09T06:09:01.192Z,20.80
2023-05-09T06:11:28.104Z,20.80
2023-05-09T06:13:55.027Z,20.80
2023-05-09T06:16:22.110Z,20.90
2023-05-09T06:18:49.296Z,20.90
2023-05-09T06:21:16.124Z,21.00
2023-05-09T06:24:01.492Z,21.00
2023-05-09T06:26:30.077Z,21.10
2023-05-09T06:28:56.946Z,21.10
2023-05-09T06:31:25.483Z,21.10
2023-05-09T06:33:53.029Z,21.20
2023-05-09T06:36:20.062Z,21.20
2023-05-09T06:38:47.031Z,21.20
2023-05-09T06:41:14.014Z,21.20
2023-05-09T06:43:41.040Z,21.20
2023-05-09T06:46:07.965Z,21.30
2023-05-09T06:48:35.064Z,21.30
2023-05-09T06:51:02.019Z,21.40
2023-05-09T06:53:28.858Z,21.40
2023-05-09T06:55:55.860Z,21.50
2023-05-09T06:58:23.277Z,21.50
2023-05-09T07:00:51.407Z,21.60
2023-05-09T07:03:18.445Z,21.60
2023-05-09T07:05:45.419Z,21.70
2023-05-09T07:08:12.347Z,21.70
2023-05-09T07:10:39.343Z,21.70
2023-05-09T07:13:06.715Z,21.80
2023-05-09T07:15:41.468Z,21.80
2023-05-09T07:18:09.554Z,21.90
2023-05-09T07:20:36.614Z,21.90
2023-05-09T07:23:04.359Z,22.00
2023-05-09T07:25:31.275Z,22.00
2023-05-09T07:27:58.530Z,22.10
2023-05-09T07:30:25.601Z,22.10
2023-05-09T07:32:52.769Z,22.20
2023-05-09T07:35:20.609Z,22.30
2023-05-09T07:37:47.458Z,22.30
2023-05-09T07:40:14.914Z,22.40
2023-05-09T07:42:45.139Z,22.50
2023-05-09T07:45:12.130Z,22.50
2023-05-09T07:47:39.071Z,22.60
2023-05-09T07:50:06.671Z,22.70
2023-05-09T07:52:33.840Z,22.70
2023-05-09T07:55:00.936Z,22.70
2023-05-09T07:57:28.038Z,22.80
2023-05-09T07:59:54.978Z,22.90
2023-05-09T08:02:21.887Z,22.90
2023-05-09T08:04:49.220Z,23.00
2023-05-09T08:07:16.323Z,23.10
2023-05-09T08:09:43.274Z,23.20
2023-05-09T08:12:10.149Z,23.30
2023-05-09T08:14:37.030Z,23.30
2023-05-09T08:17:04.000Z,23.40
2023-05-09T08:19:30.934Z,23.50
2023-05-09T08:21:57.793Z,23.60
2023-05-09T08:24:24.722Z,23.60
2023-05-09T08:26:51.600Z,23.70
2023-05-09T08:29:18.500Z,23.70
2023-05-09T08:31:45.438Z,23.80
2023-05-09T08:34:12.389Z,23.80
2023-05-09T08:36:40.982Z,23.90
2023-05-09T08:39:09.710Z,24.00
2023-05-09T08:41:37.177Z,24.20
2023-05-09T08:44:04.895Z,24.50
2023-05-09T08:46:36.981Z,25.00
2023-05-09T08:49:07.261Z,25.60
2023-05-09T08:51:35.604Z,26.30
2023-05-09T08:54:03.640Z,26.90
2023-05-09T08:56:31.817Z,27.40
2023-05-09T08:58:59.178Z,27.90
2023-05-09T09:01:29.174Z,28.40
2023-05-09T09:03:56.632Z,28.80
2023-05-09T09:06:25.884Z,29.30
2023-05-09T09:08:55.104Z,29.70
2023-05-09T09:11:22.875Z,30.20
2023-05-09T09:13:53.025Z,30.60
2023-05-09T09:16:25.692Z,31.00
2023-05-09T09:18:55.417Z,31.20
2023-05-09T09:21:23.720Z,31.30
2023-05-09T09:23:52.629Z,31.30
2023-05-09T09:26:19.524Z,31.20
2023-05-09T09:28:46.518Z,31.10
2023-05-09T09:31:24.770Z,30.90
2023-05-09T09:33:52.209Z,30.60
2023-05-09T09:36:39.359Z,30.40
2023-05-09T09:39:06.430Z,30.10
2023-05-09T09:41:44.860Z,29.90
2023-05-09T09:44:13.005Z,29.70
2023-05-09T09:46:42.955Z,29.50
2023-05-09T09:49:11.662Z,29.30
2023-05-09T09:51:39.091Z,29.20
2023-05-09T09:54:11.325Z,29.10
2023-05-09T09:56:46.889Z,29.00
2023-05-09T09:59:18.223Z,28.90
2023-05-09T10:02:07.867Z,28.80
2023-05-09T10:04:37.649Z,28.70
2023-05-09T10:07:07.091Z,28.50
2023-05-09T10:09:35.178Z,28.40
2023-05-09T10:12:06.520Z,28.30
2023-05-09T10:14:35.615Z,28.30
2023-05-09T10:17:05.079Z,28.20
2023-05-09T10:19:32.734Z,28.20
2023-05-09T10:22:04.878Z,28.20
2023-05-09T10:24:51.297Z,28.20
2023-05-09T10:27:22.328Z,28.20
2023-05-09T10:30:03.136Z,28.20
2023-05-09T10:33:12.049Z,28.20
2023-05-09T10:35:46.494Z,28.20
2023-05-09T10:38:14.506Z,28.20
2023-05-09T10:40:42.074Z,28.20
2023-05-09T10:43:09.000Z,28.30
2023-05-09T10:45:36.921Z,28.30
2023-05-09T10:48:07.238Z,28.30
2023-05-09T10:50:36.062Z,28.30
2023-05-09T10:53:08.867Z,28.30
2023-05-09T10:55:55.448Z,28.40
2023-05-09T10:58:25.766Z,28.40
2023-05-09T11:00:55.339Z,28.40
2023-05-09T11:03:26.005Z,28.40
2023-05-09T11:05:55.225Z,28.40
2023-05-09T11:08:27.957Z,28.40
2023-05-09T11:11:06.148Z,28.40
2023-05-09T11:13:38.479Z,28.40
2023-05-09T11:16:08.896Z,28.40
2023-05-09T11:18:52.905Z,28.40
2023-05-09T11:21:21.051Z,28.40
2023-05-09T11:23:48.591Z,28.50
2023-05-09T11:26:16.761Z,28.50
2023-05-09T11:28:53.357Z,28.50
2023-05-09T11:31:20.695Z,28.50
2023-05-09T11:33:55.201Z,28.50
2023-05-09T11:36:29.836Z,28.50
2023-05-09T11:39:24.780Z,28.60
2023-05-09T11:41:51.798Z,28.60
2023-05-09T11:44:21.118Z,28.60
2023-05-09T11:46:49.277Z,28.60
2023-05-09T11:49:17.070Z,28.70
2023-05-09T11:51:44.063Z,28.70
2023-05-09T11:54:13.718Z,28.70
2023-05-09T11:56:42.132Z,28.70
2023-05-09T11:59:10.619Z,28.80
2023-05-09T12:01:37.696Z,28.80
2023-05-09T12:04:07.670Z,28.80
2023-05-09T12:06:34.684Z,28.80
2023-05-09T12:09:01.634Z,28.90
2023-05-09T12:11:32.592Z,28.90
2023-05-09T12:13:59.655Z,28.90
2023-05-09T12:16:26.606Z,28.90
2023-05-09T12:18:53.844Z,28.90
2023-05-09T12:21:21.899Z,28.90
2023-05-09T12:23:51.740Z,29.00
2023-05-09T12:26:22.237Z,28.90
2023-05-09T12:28:50.142Z,29.00
2023-05-09T12:31:17.971Z,29.00
2023-05-09T12:33:45.020Z,29.00
2023-05-09T12:36:13.673Z,29.00
2023-05-09T12:38:40.876Z,29.10
2023-05-09T12:41:18.887Z,29.10
2023-05-09T12:43:56.696Z,29.20
2023-05-09T12:46:23.730Z,29.20
2023-05-09T12:48:50.821Z,29.30
2023-05-09T12:51:22.139Z,29.30
2023-05-09T12:53:49.375Z,29.30
2023-05-09T12:56:21.024Z,29.40
2023-05-09T12:58:52.965Z,29.40
2023-05-09T13:01:21.565Z,29.40
2023-05-09T13:03:52.744Z,29.40
2023-05-09T13:06:21.175Z,29.40
2023-05-09T13:09:01.534Z,29.40
2023-05-09T13:11:29.304Z,29.40
2023-05-09T13:13:56.272Z,29.40
2023-05-09T13:16:23.672Z,29.50
2023-05-09T13:18:50.611Z,29.50
2023-05-09T13:21:17.564Z,29.50
2023-05-09T13:23:45.663Z,29.50
2023-05-09T13:26:12.770Z,29.50
2023-05-09T13:28:39.709Z,29.60
2023-05-09T13:31:07.096Z,29.60
2023-05-09T13:33:34.252Z,29.60
2023-05-09T13:36:01.292Z,29.70
2023-05-09T13:38:31.058Z,29.80
2023-05-09T13:40:58.342Z,30.00
2023-05-09T13:43:25.236Z,30.20
2023-05-09T13:45:52.189Z,30.50
2023-05-09T13:48:19.068Z,30.70
2023-05-09T13:50:46.805Z,31.10
2023-05-09T13:53:13.793Z,31.30
2023-05-09T13:55:40.656Z,31.60
2023-05-09T13:58:07.706Z,31.90
2023-05-09T14:00:34.636Z,32.10
2023-05-09T14:03:03.064Z,32.40
2023-05-09T14:05:33.704Z,32.60
2023-05-09T14:08:01.729Z,32.80
2023-05-09T14:10:29.085Z,33.00
2023-05-09T14:12:57.210Z,33.20
2023-05-09T14:15:24.226Z,33.50
2023-05-09T14:17:51.145Z,33.80
2023-05-09T14:20:18.233Z,34.10
2023-05-09T14:22:45.382Z,34.50
2023-05-09T14:25:12.568Z,35.00
2023-05-09T14:27:39.501Z,35.40
2023-05-09T14:30:07.023Z,35.80
2023-05-09T14:32:33.879Z,36.10
2023-05-09T14:35:00.884Z,36.60
2023-05-09T14:37:29.503Z,37.00
2023-05-09T14:39:56.518Z,37.20
2023-05-09T14:42:23.562Z,37.30
2023-05-09T14:44:50.622Z,37.40
2023-05-09T14:47:17.758Z,37.50
2023-05-09T14:49:44.687Z,37.70
2023-05-09T14:52:11.699Z,38.00
2023-05-09T14:54:38.575Z,38.20
2023-05-09T14:57:07.431Z,38.40
2023-05-09T14:59:36.880Z,38.40
2023-05-09T15:02:04.391Z,38.20
2023-05-09T15:04:31.639Z,38.00
2023-05-09T15:06:59.113Z,38.00
2023-05-09T15:09:26.742Z,37.90
2023-05-09T15:11:54.923Z,37.90
2023-05-09T15:14:22.107Z,37.90
2023-05-09T15:16:51.527Z,37.80
2023-05-09T15:19:18.953Z,37.60
2023-05-09T15:21:46.113Z,37.60
2023-05-09T15:24:13.084Z,37.50
2023-05-09T15:26:39.965Z,37.30
2023-05-09T15:29:07.254Z,36.90
2023-05-09T15:31:35.715Z,36.50
2023-05-09T15:34:02.812Z,36.10
2023-05-09T15:36:30.286Z,35.70
2023-05-09T15:38:57.417Z,35.20
2023-05-09T15:41:24.491Z,34.80
2023-05-09T15:43:52.291Z,34.40
2023-05-09T15:46:19.304Z,34.00
2023-05-09T15:48:46.362Z,33.60
2023-05-09T15:51:13.991Z,33.20
2023-05-09T15:53:41.120Z,32.90
2023-05-09T15:56:08.762Z,32.50
2023-05-09T15:58:36.035Z,32.30
2023-05-09T16:01:06.210Z,32.00
2023-05-09T16:03:33.413Z,31.80
2023-05-09T16:06:00.829Z,31.70
2023-05-09T16:08:27.828Z,31.40
2023-05-09T16:10:54.834Z,31.30
2023-05-09T16:13:21.809Z,31.10
2023-05-09T16:15:50.209Z,30.90
2023-05-09T16:18:17.157Z,30.70
2023-05-09T16:20:44.228Z,30.60
2023-05-09T16:23:11.953Z,30.40
2023-05-09T16:25:38.840Z,30.30
2023-05-09T16:28:08.414Z,30.10
2023-05-09T16:30:35.357Z,30.00
2023-05-09T16:33:02.331Z,29.90
2023-05-09T16:35:29.680Z,29.80
2023-05-09T16:37:56.582Z,29.60
2023-05-09T16:40:23.522Z,29.60
2023-05-09T16:42:50.433Z,29.50
2023-05-09T16:45:17.515Z,29.30
2023-05-09T16:47:44.493Z,29.30
2023-05-09T16:50:11.596Z,29.20
2023-05-09T16:52:38.441Z,29.10
2023-05-09T16:55:05.856Z,29.00
2023-05-09T16:57:33.390Z,29.00
2023-05-09T17:00:00.393Z,28.90
2023-05-09T17:02:27.520Z,28.80
2023-05-09T17:04:54.805Z,28.80
2023-05-09T17:07:21.747Z,28.70
2023-05-09T17:09:49.699Z,28.60
2023-05-09T17:12:18.452Z,28.60
2023-05-09T17:14:47.187Z,28.50
2023-05-09T17:17:14.969Z,28.40
2023-05-09T17:19:41.960Z,28.30
2023-05-09T17:22:09.387Z,28.30
2023-05-09T17:24:36.291Z,28.20
2023-05-09T17:27:04.355Z,28.20
2023-05-09T17:29:31.301Z,28.20
2023-05-09T17:32:02.289Z,28.10
2023-05-09T17:34:29.444Z,28.10
2023-05-09T17:36:56.606Z,28.10
2023-05-09T17:39:23.869Z,28.10
2023-05-09T17:41:50.935Z,28.00
2023-05-09T17:44:17.841Z,28.00
2023-05-09T17:46:44.938Z,28.00
2023-05-09T17:49:14.199Z,27.90
2023-05-09T17:51:41.414Z,27.90
2023-05-09T17:54:08.671Z,27.80
2023-05-09T17:56:35.695Z,27.70
2023-05-09T17:59:02.684Z,27.70
2023-05-09T18:01:29.588Z,27.60
2023-05-09T18:03:57.136Z,27.50
2023-05-09T18:06:24.242Z,27.50
2023-05-09T18:08:51.237Z,27.40
2023-05-09T18:11:18.171Z,27.30
2023-05-09T18:13:45.154Z,27.30
2023-05-09T18:16:12.164Z,27.20
2023-05-09T18:18:39.149Z,27.20
2023-05-09T18:21:08.045Z,27.10
2023-05-09T18:23:35.042Z,27.10
2023-05-09T18:26:02.150Z,27.10
2023-05-09T18:28:29.080Z,27.00
2023-05-09T18:30:58.471Z,27.00
2023-05-09T18:33:26.852Z,27.00
2023-05-09T18:35:54.834Z,26.90
2023-05-09T18:38:22.815Z,26.90
2023-05-09T18:40:51.805Z,26.90
2023-05-09T18:43:23.248Z,26.90
2023-05-09T18:45:50.094Z,26.80
2023-05-09T18:48:17.292Z,26.80
2023-05-09T18:50:44.803Z,26.80
2023-05-09T18:53:11.729Z,26.70
2023-05-09T18:55:38.986Z,26.60
2023-05-09T18:58:07.168Z,26.60
2023-05-09T19:00:35.770Z,26.50
2023-05-09T19:03:02.859Z,26.40
2023-05-09T19:05:30.402Z,26.40
2023-05-09T19:07:57.285Z,26.40
2023-05-09T19:10:24.382Z,26.30
2023-05-09T19:12:51.379Z,26.30
2023-05-09T19:15:19.776Z,26.30
2023-05-09T19:17:46.716Z,26.20
2023-05-09T19:20:13.931Z,26.20
2023-05-09T19:22:45.519Z,26.20
2023-05-09T19:25:12.463Z,26.20
2023-05-09T19:27:39.349Z,26.10
2023-05-09T19:30:07.543Z,26.10
2023-05-09T19:32:34.435Z,26.10
2023-05-09T19:35:01.503Z,26.00
2023-05-09T19:37:28.423Z,26.00
2023-05-09T19:39:55.408Z,25.90
2023-05-09T19:42:22.279Z,25.80
2023-05-09T19:44:49.146Z,25.70
2023-05-09T19:47:16.047Z,25.60
2023-05-09T19:49:43.268Z,25.60
2023-05-09T19:52:10.215Z,25.50
2023-05-09T19:54:37.191Z,25.50
2023-05-09T19:57:06.485Z,25.50
2023-05-09T19:59:33.459Z,25.40
2023-05-09T20:02:00.493Z,25.40
2023-05-09T20:04:27.499Z,25.40
2023-05-09T20:06:54.385Z,25.40
2023-05-09T20:09:21.413Z,25.40
2023-05-09T20:11:48.658Z,25.30
2023-05-09T20:14:15.513Z,25.30
2023-05-09T20:16:43.741Z,25.30
2023-05-09T20:19:14.281Z,25.20
2023-05-09T20:21:41.586Z,25.20
2023-05-09T20:24:08.939Z,25.20
2023-05-09T20:26:35.862Z,25.10
2023-05-09T20:29:02.791Z,25.00
2023-05-09T20:31:30.585Z,25.00
2023-05-09T20:33:58.380Z,25.00
2023-05-09T20:36:27.815Z,25.00
2023-05-09T20:38:56.422Z,25.00
2023-05-09T20:41:24.124Z,24.90
2023-05-09T20:43:51.486Z,24.90
2023-05-09T20:46:18.415Z,24.90
2023-05-09T20:48:45.505Z,24.90
2023-05-09T20:51:12.396Z,24.90
2023-05-09T20:53:39.391Z,24.90
2023-05-09T20:56:06.339Z,24.90
2023-05-09T20:58:34.413Z,24.90
2023-05-09T21:01:02.120Z,24.90
2023-05-09T21:03:29.132Z,24.80
2023-05-09T21:05:56.027Z,24.80
2023-05-09T21:08:23.320Z,24.80
2023-05-09T21:10:54.311Z,24.70
2023-05-09T21:13:21.443Z,24.70
2023-05-09T21:15:51.448Z,24.70
2023-05-09T21:18:18.958Z,24.70
2023-05-09T21:20:46.008Z,24.70
2023-05-09T21:23:12.867Z,24.60
2023-05-09T21:25:39.817Z,24.60
2023-05-09T21:28:06.721Z,24.60
2023-05-09T21:30:33.624Z,24.50
2023-05-09T21:33:00.615Z,24.50
2023-05-09T21:35:27.488Z,24.50
2023-05-09T21:37:54.397Z,24.40
2023-05-09T21:40:21.387Z,24.40
2023-05-09T21:42:48.401Z,24.30
2023-05-09T21:45:15.620Z,24.30
2023-05-09T21:47:42.564Z,24.20
2023-05-09T21:50:09.943Z,24.20
2023-05-09T21:52:36.832Z,24.20
2023-05-09T21:55:04.008Z,24.20
2023-05-09T21:57:30.877Z,24.20
2023-05-09T22:00:01.512Z,24.10
2023-05-09T22:02:29.146Z,24.10
2023-05-09T22:04:56.346Z,24.10
2023-05-09T22:07:23.394Z,24.10
2023-05-09T22:09:50.546Z,24.20
2023-05-09T22:12:17.425Z,24.10
2023-05-09T22:14:52.976Z,24.20
2023-05-09T22:17:22.542Z,24.20
2023-05-09T22:19:49.445Z,24.20
2023-05-09T22:22:16.285Z,24.20
2023-05-09T22:24:43.246Z,24.20
2023-05-09T22:27:11.066Z,24.10
2023-05-09T22:29:37.974Z,24.10
2023-05-09T22:32:07.778Z,24.10
2023-05-09T22:34:35.574Z,24.10
2023-05-09T22:37:02.462Z,24.10
2023-05-09T22:39:29.891Z,24.10
2023-05-09T22:41:56.949Z,24.10
2023-05-09T22:44:23.955Z,24.10
2023-05-09T22:46:50.917Z,24.10
2023-05-09T22:49:17.844Z,24.10
2023-05-09T22:51:44.703Z,24.10
2023-05-09T22:54:11.627Z,24.10
2023-05-09T22:56:38.575Z,24.10
2023-05-09T22:59:05.507Z,24.00
2023-05-09T23:01:32.808Z,24.00
2023-05-09T23:03:59.705Z,24.00
2023-05-09T23:06:26.543Z,24.00
2023-05-09T23:08:53.530Z,24.00
2023-05-09T23:11:21.879Z,24.00
2023-05-09T23:13:48.846Z,24.00
2023-05-09T23:16:16.267Z,23.90
2023-05-09T23:18:43.249Z,23.90
2023-05-09T23:21:10.136Z,23.90
2023-05-09T23:23:37.163Z,23.90
2023-05-09T23:26:04.077Z,24.00
2023-05-09T23:28:31.021Z,24.00
2023-05-09T23:30:57.863Z,24.00
2023-05-09T23:33:24.892Z,24.00
2023-05-09T23:35:51.805Z,23.90
2023-05-09T23:38:18.854Z,24.00
2023-05-09T23:40:46.345Z,24.00
2023-05-09T23:43:13.761Z,24.00
2023-05-09T23:45:40.666Z,23.90
2023-05-09T23:48:07.921Z,23.90
2023-05-09T23:50:34.825Z,23.90
2023-05-09T23:53:01.758Z,23.80
2023-05-09T23:55:29.242Z,23.80
2023-05-09T23:57:56.501Z,23.80
